createdAt,value
2022-10-08T00:00:06.180Z,18.50
2022-10-08T00:05:03.900Z,18.13
2022-10-08T00:09:57.759Z,17.87
2022-10-08T00:14:50.345Z,17.63
2022-10-08T00:19:43.090Z,17.47
2022-10-08T00:24:36.040Z,19.67
2022-10-08T00:29:30.180Z,19.90
2022-10-08T00:34:23.273Z,18.93
2022-10-08T00:39:16.413Z,18.40
2022-10-08T00:44:28.126Z,17.40
2022-10-08T00:49:25.168Z,23.10
2022-10-08T00:54:18.563Z,15.80
2022-10-08T00:59:12.491Z,15.40
2022-10-08T01:04:06.352Z,15.40
2022-10-08T01:09:03.109Z,15.37
2022-10-08T01:13:59.486Z,16.50
2022-10-08T01:18:54.724Z,15.90
2022-10-08T01:24:08.213Z,15.70
2022-10-08T01:29:04.088Z,16.67
2022-10-08T01:34:00.344Z,18.43
2022-10-08T01:38:54.549Z,16.53
2022-10-08T01:43:50.949Z,16.83
2022-10-08T01:48:45.312Z,15.90
2022-10-08T01:53:39.405Z,17.20
2022-10-08T01:58:35.044Z,17.33
2022-10-08T02:03:27.567Z,17.40
2022-10-08T02:08:22.673Z,15.50
2022-10-08T02:13:15.361Z,16.07
2022-10-08T02:18:10.857Z,17.67
2022-10-08T02:23:06.735Z,17.27
2022-10-08T02:28:04.835Z,16.93
2022-10-08T02:33:00.126Z,17.70
2022-10-08T02:37:55.937Z,20.70
2022-10-08T02:42:52.347Z,19.73
2022-10-08T02:47:48.704Z,20.50
2022-10-08T02:52:42.988Z,20.80
2022-10-08T02:57:38.730Z,23.70
2022-10-08T03:02:34.695Z,23.50
2022-10-08T03:07:30.033Z,26.03
2022-10-08T03:12:22.587Z,23.77
2022-10-08T03:17:17.025Z,25.23
2022-10-08T03:22:09.577Z,25.77
2022-10-08T03:27:03.430Z,24.20
2022-10-08T03:31:55.922Z,25.10
2022-10-08T03:36:48.409Z,24.30
2022-10-08T03:41:41.038Z,24.93
2022-10-08T03:46:34.974Z,25.83
2022-10-08T03:51:27.570Z,23.57
2022-10-08T03:56:21.554Z,24.57
2022-10-08T04:01:14.933Z,24.13
2022-10-08T04:06:09.080Z,23.70
2022-10-08T04:11:03.393Z,24.03
2022-10-08T04:16:00.772Z,24.47
2022-10-08T04:20:57.377Z,24.70
2022-10-08T04:25:52.187Z,23.00
2022-10-08T04:30:44.816Z,23.60
2022-10-08T04:35:38.001Z,25.00
2022-10-08T04:40:30.530Z,24.10
2022-10-08T04:45:24.382Z,27.30
2022-10-08T04:50:17.015Z,26.10
2022-10-08T04:55:13.159Z,27.10
2022-10-08T05:00:18.479Z,26.80
2022-10-08T05:05:15.529Z,27.37
2022-10-08T05:10:08.396Z,27.67
2022-10-08T05:15:00.903Z,26.77
2022-10-08T05:19:53.422Z,27.00
2022-10-08T05:24:47.266Z,26.67
2022-10-08T05:29:39.790Z,27.10
2022-10-08T05:34:32.301Z,28.07
2022-10-08T05:39:24.892Z,28.40
2022-10-08T05:44:18.746Z,30.10
2022-10-08T05:49:17.270Z,28.47
2022-10-08T05:54:09.834Z,28.17
2022-10-08T05:59:02.388Z,29.20
2022-10-08T06:03:56.930Z,28.40
2022-10-08T06:08:53.571Z,30.30
2022-10-08T06:13:46.086Z,28.17
2022-10-08T06:18:39.777Z,26.63
2022-10-08T06:23:33.819Z,28.80
2022-10-08T06:28:26.418Z,28.30
2022-10-08T06:33:19.028Z,28.20
2022-10-08T06:38:11.561Z,25.53
2022-10-08T06:43:07.573Z,25.20
2022-10-08T06:48:00.107Z,23.00
2022-10-08T06:52:52.619Z,23.40
2022-10-08T06:57:45.123Z,22.10
2022-10-08T07:02:39.012Z,21.50
2022-10-08T07:07:31.585Z,16.73
2022-10-08T07:12:24.149Z,13.90
2022-10-08T07:17:16.696Z,14.57
2022-10-08T07:22:10.554Z,9.97
2022-10-08T07:27:03.074Z,9.07
2022-10-08T07:31:55.631Z,9.70
2022-10-08T07:36:48.147Z,8.33
2022-10-08T07:41:42.254Z,9.03
2022-10-08T07:46:35.882Z,8.10
2022-10-08T07:51:29.199Z,7.80
2022-10-08T07:56:22.340Z,7.00
2022-10-08T08:01:17.262Z,6.30
2022-10-08T08:06:10.698Z,5.70
2022-10-08T08:11:04.088Z,4.90
2022-10-08T08:15:57.290Z,4.90
2022-10-08T08:20:51.171Z,4.20
2022-10-08T08:25:44.967Z,4.50
2022-10-08T08:30:37.508Z,4.00
2022-10-08T08:35:30.017Z,4.03
2022-10-08T08:40:23.976Z,3.00
2022-10-08T08:45:45.423Z,2.80
2022-10-08T08:50:39.531Z,3.27
2022-10-08T08:55:38.687Z,3.17
2022-10-08T09:00:35.170Z,2.90
2022-10-08T09:05:28.794Z,3.87
2022-10-08T09:10:23.353Z,3.03
2022-10-08T09:15:20.239Z,3.50
2022-10-08T09:20:15.188Z,3.57
2022-10-08T09:25:09.011Z,3.97
2022-10-08T09:30:01.532Z,3.47
2022-10-08T09:34:56.662Z,3.30
2022-10-08T09:40:04.045Z,3.37
2022-10-08T09:44:58.907Z,3.57
2022-10-08T09:50:04.860Z,3.50
2022-10-08T09:55:01.734Z,3.40
2022-10-08T09:59:55.749Z,3.83
2022-10-08T10:04:48.313Z,3.37
2022-10-08T10:09:44.770Z,3.30
2022-10-08T10:14:41.247Z,3.30
2022-10-08T10:19:35.434Z,3.00
2022-10-08T10:24:32.976Z,2.73
2022-10-08T10:29:31.459Z,2.93
2022-10-08T10:34:25.814Z,3.30
2022-10-08T10:39:22.031Z,2.90
2022-10-08T10:44:16.666Z,3.47
2022-10-08T10:49:14.386Z,3.03
2022-10-08T10:54:12.456Z,2.80
2022-10-08T10:59:21.009Z,2.60
2022-10-08T11:04:20.854Z,3.10
2022-10-08T11:09:17.580Z,3.17
2022-10-08T11:14:15.825Z,3.10
2022-10-08T11:19:12.859Z,3.30
2022-10-08T11:24:16.128Z,2.40
2022-10-08T11:29:14.470Z,2.60
2022-10-08T11:34:14.977Z,2.60
2022-10-08T11:39:11.463Z,2.60
2022-10-08T11:44:07.167Z,2.33
2022-10-08T11:49:00.865Z,2.70
2022-10-08T11:54:00.678Z,2.70
2022-10-08T11:58:53.897Z,2.50
2022-10-08T12:04:00.761Z,2.30
2022-10-08T12:08:57.208Z,2.33
2022-10-08T12:14:14.358Z,2.40
2022-10-08T12:19:34.410Z,2.10
2022-10-08T12:24:49.671Z,2.50
2022-10-08T12:29:53.722Z,1.97
2022-10-08T12:34:47.620Z,2.40
2022-10-08T12:39:42.576Z,2.13
2022-10-08T12:44:41.057Z,2.63
2022-10-08T12:49:36.090Z,2.30
2022-10-08T12:54:30.660Z,2.17
2022-10-08T12:59:24.864Z,1.93
2022-10-08T13:04:19.290Z,2.00
2022-10-08T13:09:25.238Z,2.10
2022-10-08T13:14:26.712Z,1.83
2022-10-08T13:19:20.023Z,2.03
2022-10-08T13:24:32.377Z,2.00
2022-10-08T13:29:33.821Z,2.00
2022-10-08T13:34:29.565Z,1.90
2022-10-08T13:39:23.088Z,1.53
2022-10-08T13:44:15.621Z,1.40
2022-10-08T13:49:19.419Z,1.60
2022-10-08T13:54:11.938Z,1.43
2022-10-08T13:59:04.470Z,1.40
2022-10-08T14:03:56.981Z,1.60
2022-10-08T14:08:50.829Z,1.30
2022-10-08T14:13:43.419Z,1.53
2022-10-08T14:18:35.952Z,1.70
2022-10-08T14:23:28.588Z,1.60
2022-10-08T14:28:22.484Z,1.67
2022-10-08T14:33:15.168Z,1.60
2022-10-08T14:38:08.653Z,1.97
2022-10-08T14:43:01.242Z,1.90
2022-10-08T14:47:55.091Z,1.73
2022-10-08T14:52:48.193Z,1.83
2022-10-08T14:57:40.909Z,1.70
2022-10-08T15:02:34.679Z,1.60
2022-10-08T15:07:28.700Z,1.70
2022-10-08T15:12:21.235Z,1.37
2022-10-08T15:17:13.758Z,1.10
2022-10-08T15:22:06.323Z,1.47
2022-10-08T15:27:00.252Z,1.50
2022-10-08T15:31:53.094Z,1.43
2022-10-08T15:36:45.917Z,1.70
2022-10-08T15:41:39.379Z,1.60
2022-10-08T15:46:33.308Z,1.87
2022-10-08T15:51:26.046Z,1.83
2022-10-08T15:56:18.627Z,2.00
2022-10-08T16:01:12.337Z,2.10
2022-10-08T16:06:07.238Z,2.17
2022-10-08T16:11:10.160Z,2.10
2022-10-08T16:16:02.751Z,1.90
2022-10-08T16:20:55.297Z,2.10
2022-10-08T16:25:49.164Z,2.03
2022-10-08T16:30:41.743Z,2.13
2022-10-08T16:35:35.874Z,2.00
2022-10-08T16:40:28.429Z,3.00
2022-10-08T16:45:22.357Z,5.47
2022-10-08T16:50:14.945Z,3.27
2022-10-08T16:55:07.821Z,2.20
2022-10-08T17:00:01.042Z,2.30
2022-10-08T17:04:55.258Z,2.27
2022-10-08T17:09:47.771Z,2.57
2022-10-08T17:14:40.290Z,2.40
2022-10-08T17:19:32.806Z,2.50
2022-10-08T17:24:27.134Z,2.43
2022-10-08T17:29:19.636Z,2.90
2022-10-08T17:34:12.417Z,3.10
2022-10-08T17:39:06.138Z,3.07
2022-10-08T17:44:00.750Z,3.20
2022-10-08T17:48:53.336Z,3.10
2022-10-08T17:53:46.627Z,4.00
2022-10-08T17:58:39.576Z,4.23
2022-10-08T18:03:33.546Z,4.53
2022-10-08T18:08:26.252Z,5.40
2022-10-08T18:13:18.955Z,4.90
2022-10-08T18:18:11.769Z,5.87
2022-10-08T18:23:08.274Z,5.37
2022-10-08T18:28:00.987Z,5.63
2022-10-08T18:32:53.592Z,5.60
2022-10-08T18:37:47.218Z,5.53
2022-10-08T18:42:41.105Z,5.50
2022-10-08T18:47:33.717Z,6.00
2022-10-08T18:52:27.161Z,5.90
2022-10-08T18:57:19.696Z,6.07
2022-10-08T19:02:13.706Z,5.70
2022-10-08T19:07:06.364Z,6.60
2022-10-08T19:12:00.770Z,7.53
2022-10-08T19:16:53.355Z,5.47
2022-10-08T19:21:48.155Z,4.53
2022-10-08T19:26:40.929Z,4.67
2022-10-08T19:31:34.640Z,4.20
2022-10-08T19:36:28.711Z,4.70
2022-10-08T19:41:23.519Z,5.30
2022-10-08T19:46:16.147Z,7.10
2022-10-08T19:51:09.653Z,6.30
2022-10-08T19:56:04.120Z,6.77
2022-10-08T20:01:01.422Z,6.53
2022-10-08T20:05:53.989Z,6.30
2022-10-08T20:10:46.492Z,8.17
2022-10-08T20:15:39.252Z,8.90
2022-10-08T20:20:33.824Z,9.90
2022-10-08T20:25:26.449Z,11.90
2022-10-08T20:30:19.029Z,12.73
2022-10-08T20:35:11.609Z,14.20
2022-10-08T20:40:05.929Z,15.20
2022-10-08T20:44:58.696Z,12.77
2022-10-08T20:49:51.210Z,11.13
2022-10-08T20:54:44.176Z,6.73
2022-10-08T20:59:38.023Z,9.10
2022-10-08T21:04:30.492Z,11.50
2022-10-08T21:09:23.222Z,10.73
2022-10-08T21:14:17.150Z,12.00
2022-10-08T21:19:13.822Z,9.63
2022-10-08T21:24:06.671Z,8.60
2022-10-08T21:29:00.079Z,9.37
2022-10-08T21:33:53.556Z,11.97
2022-10-08T21:38:47.949Z,16.07
2022-10-08T21:43:40.886Z,13.77
2022-10-08T21:48:33.531Z,11.97
2022-10-08T21:53:26.229Z,13.40
2022-10-08T21:58:20.125Z,13.50
2022-10-08T22:03:12.734Z,12.90
2022-10-08T22:08:05.292Z,11.47
2022-10-08T22:12:57.810Z,10.60
2022-10-08T22:17:51.663Z,8.27
2022-10-08T22:22:44.213Z,8.77
2022-10-08T22:27:36.715Z,9.70
2022-10-08T22:32:29.257Z,7.97
2022-10-08T22:37:23.160Z,8.90
2022-10-08T22:42:15.725Z,10.63
2022-10-08T22:47:08.260Z,6.77
2022-10-08T22:52:00.809Z,8.57
2022-10-08T22:56:54.690Z,8.17
2022-10-08T23:01:47.228Z,9.20
2022-10-08T23:06:39.833Z,8.90
2022-10-08T23:11:32.634Z,10.10
2022-10-08T23:16:27.578Z,9.67
2022-10-08T23:21:20.176Z,10.43
2022-10-08T23:26:13.127Z,7.37
2022-10-08T23:31:06.713Z,5.80
2022-10-08T23:36:00.593Z,10.77
2022-10-08T23:40:53.137Z,11.97
2022-10-08T23:45:45.757Z,6.10
2022-10-08T23:50:38.352Z,6.10
2022-10-08T23:55:32.209Z,5.60
